ENHD/HAU METAR and TAF weather

Enter ICAO airport designator
Station Type Date Time Source
ENHD METAR 2022/12/04 03:50 UTC NOAA

ENHD 040350Z AUTO 11004KT 9999 NCD M04/M06 Q1032


Station Type Date Time Source
ENHD Decoded METAR 2022/12/04 03:50 UTC NOAA

Haugesund / Karmoy, Norway (ENHD) 59-21N 005-13E 24M
Dec 03, 2022 - 10:50 PM EST / 2022.12.04 0350 UTC
Wind: from the ESE (110 degrees) at 5 MPH (4 KT):0
Visibility: greater than 7 mile(s):0
Temperature: 24 F (-4 C)
Windchill: 17 F (-8 C):1
Dew Point: 21 F (-6 C)
Relative Humidity: 85%
Pressure (altimeter): 30.47 in. Hg (1032 hPa)
ob: ENHD 040350Z AUTO 11004KT 9999 NCD M04/M06 Q1032
cycle: 4

Station Type Date Time Source
ENHD TAF UTC NOAA

Error!

Example: see airport list